Boheme — 9V8514 — position and weather

sailwx.info

Track history (hours):
 
Tides and Currents Weather Stations Pressure Air Temp Water Temp Dewpoint Dewpoint Depression Visibility Wind Speed Wind Dir Waves Ship Positions

Boheme

Last reported at 2017-Dec-28 09:02 UTC. Time now 2018-Jan-22 00:09 UTC.
Position N 36°35' E 014°38'.
Warning: this ship's position is 24 days out of date.

Length 227 m; draft 9.9 m.

Type: Cargo ship. MMSI: 563262000.

Date/timePositionNaut miles runAvg speedWind from/ knotsBaromVisibWave heightAir tempDewpointWater temp
2017-Dec-28 09:02N 36°35' E 014°38'117.5
2017-Dec-28 08:59N 36°36' E 014°37'917.7
2017-Dec-28 08:30N 36°39' E 014°28'917.5
2017-Dec-28 08:00N 36°43' E 014°18'917.1
2017-Dec-28 07:30N 36°46' E 014°08'816.9
2017-Dec-28 07:00N 36°49' E 013°58'816.5
2017-Dec-28 06:30N 36°53' E 013°49'25916.6
2017-Dec-27 14:55N 38°36' E 008°48'717.4
2017-Dec-27 14:30N 38°38' E 008°39'1916.9
2017-Dec-27 13:22N 38°46' E 008°17'  
2017-Dec-25 05:59N 41°18' E 002°11'17 8.9
2017-Dec-25 04:05N 41°02' E 002°09'415.9
2017-Dec-25 03:51N 40°58' E 002°07'22411.5
2017-Dec-24 08:19N 37°45' W 000°21'516.1
2017-Dec-24 08:00N 37°41' W 000°24'816.0
2017-Dec-24 07:30N 37°34' W 000°30'815.4
2017-Dec-24 07:00N 37°29' W 000°36'815.3
2017-Dec-24 06:30N 37°24' W 000°43'815.3
2017-Dec-24 06:00N 37°19' W 000°51'815.2
2017-Dec-24 05:30N 37°14' W 000°58'21714.6
2017-Dec-23 14:41N 35°60' W 005°12'318.2
2017-Dec-23 14:30N 35°59' W 005°16'917.8
2017-Dec-23 14:00N 35°58' W 005°26'14115.4
2017-Dec-23 04:52N 36°21' W 008°18'1315.4
2017-Dec-23 04:01N 36°24' W 008°34'115.3
2017-Dec-23 03:58N 36°24' W 008°35'715.3
2017-Dec-23 03:30N 36°26' W 008°44'815.4
2017-Dec-23 03:00N 36°28' W 008°53'1615.2
2017-Dec-23 01:57N 36°32' W 009°12'1815.0
2017-Dec-23 00:46N 36°44' W 009°29'615.1
2017-Dec-23 00:23N 36°48' W 009°34'1116.1
2017-Dec-22 23:44N 36°58' W 009°36'616.0
2017-Dec-22 23:21N 37°04' W 009°38'615.9
2017-Dec-22 22:57N 37°10' W 009°38'715.5
2017-Dec-22 22:30N 37°17' W 009°40'915.6
2017-Dec-22 21:54N 37°27' W 009°42'615.6
2017-Dec-22 21:30N 37°32' W 009°44'815.6
2017-Dec-22 21:00N 37°40' W 009°47'815.5
2017-Dec-22 20:30N 37°47' W 009°50'815.7
2017-Dec-22 20:00N 37°55' W 009°52'815.6
2017-Dec-22 19:30N 38°02' W 009°55'815.7
2017-Dec-22 19:00N 38°10' W 009°57'815.7
2017-Dec-22 18:30N 38°18' W 009°59'815.7
2017-Dec-22 18:00N 38°25' W 010°02'815.6
2017-Dec-22 17:30N 38°33' W 010°04'815.8
2017-Dec-22 17:00N 38°41' W 010°06'815.5
2017-Dec-22 16:30N 38°48' W 010°06'815.3
2017-Dec-22 16:00N 38°56' W 010°07'815.3
2017-Dec-22 15:30N 39°04' W 010°07'815.2
2017-Dec-22 15:00N 39°11' W 010°07'815.9
2017-Dec-22 14:30N 39°19' W 010°07'815.7
2017-Dec-22 14:00N 39°27' W 010°07'815.6
2017-Dec-22 13:30N 39°35' W 010°06'815.6
2017-Dec-22 13:00N 39°43' W 010°06'815.4
2017-Dec-22 12:30N 39°51' W 010°06'815.6
2017-Dec-22 12:00N 39°58' W 010°06'815.6
2017-Dec-22 11:30N 40°06' W 010°06'815.4
2017-Dec-22 11:00N 40°14' W 010°07'815.7
2017-Dec-22 10:29N 40°22' W 010°07'715.8
2017-Dec-22 10:00N 40°30' W 010°07'915.6
2017-Dec-22 09:27N 40°38' W 010°07'21915.5
2017-Dec-21 19:18N 44°15' W 009°24'30015.1
2017-Dec-20 23:24N 48°39' W 005°57'1116.2
2017-Dec-20 22:44N 48°49' W 005°49'416.3
2017-Dec-20 22:29N 48°52' W 005°47'815.3
2017-Dec-20 21:57N 48°57' W 005°37'715.3
2017-Dec-20 21:28N 49°01' W 005°27'715.1
2017-Dec-20 20:59N 49°04' W 005°17'2114.3
2017-Dec-20 19:31N 49°15' W 004°50'613.3
2017-Dec-20 19:03N 49°19' W 004°42'313.3
2017-Dec-20 18:50N 49°20' W 004°38'3513.4
2017-Dec-20 16:12N 49°38' W 003°51'714.7
2017-Dec-20 15:43N 49°42' W 003°42'415.3
2017-Dec-20 15:28N 49°43' W 003°37'915.9
2017-Dec-20 14:55N 49°48' W 003°25'716.5
2017-Dec-20 14:31N 49°51' W 003°16'1016.9
2017-Dec-20 13:57N 49°56' W 003°03'716.9
2017-Dec-20 13:30N 49°59' W 002°53'816.6
2017-Dec-20 13:00N 50°02' W 002°40'916.2
2017-Dec-20 12:26N 50°04' W 002°27'715.5
2017-Dec-20 12:00N 50°06' W 002°16'1214.5
2017-Dec-20 11:10N 50°10' W 001°58'6413.3
2017-Dec-20 06:20N 50°28' W 000°22'515.9
2017-Dec-20 06:00N 50°29' W 000°14'816.4
2017-Dec-20 05:30N 50°32' W 000°02'816.7
2017-Dec-20 05:00N 50°34' E 000°11'816.9
2017-Dec-20 04:30N 50°36' E 000°24'816.6
2017-Dec-20 04:00N 50°39' E 000°36'816.3
2017-Dec-20 03:30N 50°43' E 000°47'815.6
2017-Dec-20 03:00N 50°48' E 000°57'715.0
2017-Dec-20 02:30N 50°52' E 001°07'814.3
2017-Dec-20 01:58N 50°57' E 001°16'613.2
2017-Dec-20 01:30N 51°02' E 001°23'612.9
2017-Dec-20 01:01N 51°05' E 001°31'713.0
2017-Dec-20 00:30N 51°09' E 001°40'713.7
2017-Dec-20 00:01N 51°15' E 001°46'714.9
2017-Dec-19 23:31N 51°21' E 001°53'714.3
2017-Dec-19 23:01N 51°25' E 002°03'815.0
2017-Dec-19 22:31N 51°21' E 002°13'815.7
2017-Dec-19 22:01N 51°22' E 002°26'815.9
2017-Dec-19 21:30N 51°22' E 002°38'713.0
2017-Dec-19 21:01N 51°22' E 002°49'816.8
2017-Dec-19 20:31N 51°24' E 003°02'816.6
2017-Dec-19 20:00N 51°25' E 003°15'917.0
2017-Dec-19 19:30N 51°25' E 003°29'611.5
2017-Dec-19 19:00N 51°26' E 003°38'713.6
2017-Dec-19 18:30N 51°22' E 003°46'714.3
2017-Dec-19 18:00N 51°24' E 003°57'4 7.0
2017-Dec-19 17:30N 51°23' E 004°03'612.5
2017-Dec-19 17:00N 51°24' E 004°13'611.2
2017-Dec-19 16:30N 51°19' E 004°16'2 4.2
2017-Dec-19 16:01N 51°17' E 004°15'0 0.0
2017-Dec-19 15:31N 51°17' E 004°15'1 1.2
2017-Dec-19 15:01N 51°16' E 004°14'1 1.2
2017-Dec-19 14:28N 51°17' E 004°13'0 0.0
2017-Dec-19 13:58N 51°17' E 004°13'0 0.0
2017-Dec-19 13:28N 51°17' E 004°13'0 0.0
2017-Dec-19 12:55N 51°17' E 004°13'0 0.0
2017-Dec-19 12:28N 51°17' E 004°13'0 0.0
2017-Dec-19 11:58N 51°17' E 004°13'0 0.0
2017-Dec-19 11:28N 51°17' E 004°13'0 0.0
2017-Dec-19 10:55N 51°17' E 004°13'0 0.0
2017-Dec-19 10:28N 51°17' E 004°13'0 0.0
2017-Dec-19 09:58N 51°17' E 004°13'0 0.0
2017-Dec-19 09:28N 51°17' E 004°13'0 0.0
2017-Dec-19 08:58N 51°17' E 004°13'0 0.0
2017-Dec-19 08:28N 51°17' E 004°13'0 0.0
2017-Dec-19 07:58N 51°17' E 004°13'0 0.0
2017-Dec-19 07:25N 51°17' E 004°13'0 0.0
2017-Dec-19 06:58N 51°17' E 004°13'0 0.0
2017-Dec-19 06:28N 51°17' E 004°13'0 0.0
2017-Dec-19 05:55N 51°17' E 004°13'0 0.0
2017-Dec-19 05:28N 51°17' E 004°13'0 0.0
2017-Dec-19 04:58N 51°17' E 004°13'0 0.0
2017-Dec-19 04:28N 51°17' E 004°13'0 0.0
2017-Dec-19 03:58N 51°17' E 004°13'0 0.0
2017-Dec-19 03:25N 51°17' E 004°13'0 0.0
2017-Dec-19 02:58N 51°17' E 004°13'0 0.0
2017-Dec-19 02:28N 51°17' E 004°13'0 0.0
2017-Dec-19 01:58N 51°17' E 004°13'0 0.0
2017-Dec-19 01:28N 51°17' E 004°13'0 0.0
2017-Dec-19 00:58N 51°17' E 004°13'0 0.0
2017-Dec-19 00:28N 51°17' E 004°13'0 0.0
2017-Dec-18 23:58N 51°17' E 004°13'0 0.0
2017-Dec-18 23:28N 51°17' E 004°13'0 0.0
2017-Dec-18 22:55N 51°17' E 004°13'0 0.0
2017-Dec-18 22:28N 51°17' E 004°13'0 0.0
2017-Dec-18 21:58N 51°17' E 004°13'1 1.2
2017-Dec-18 21:29N 51°16' E 004°13'0 0.1
2017-Dec-18 20:59N 51°16' E 004°13'0 0.0
2017-Dec-18 20:29N 51°16' E 004°13'0 0.0
2017-Dec-18 19:59N 51°16' E 004°13'0 0.0
2017-Dec-18 19:29N 51°16' E 004°13'0 0.0
2017-Dec-18 18:59N 51°16' E 004°13'0 0.0
2017-Dec-18 18:29N 51°16' E 004°13'0 0.0
2017-Dec-18 17:59N 51°16' E 004°13'0 0.0
2017-Dec-18 17:29N 51°16' E 004°13'0 0.0
2017-Dec-18 16:59N 51°16' E 004°13'0 0.0
2017-Dec-18 16:29N 51°16' E 004°13'0 0.0
2017-Dec-18 15:59N 51°16' E 004°13'0 0.0
2017-Dec-18 15:29N 51°16' E 004°13'0 0.0
2017-Dec-18 14:59N 51°16' E 004°13'0 0.0
2017-Dec-18 14:29N 51°16' E 004°13'0 0.0
2017-Dec-18 13:59N 51°16' E 004°13'0 0.0
2017-Dec-18 13:29N 51°16' E 004°13'0 0.0
2017-Dec-18 12:59N 51°16' E 004°13'0 0.0
2017-Dec-18 12:29N 51°16' E 004°13'0 0.0
2017-Dec-18 11:59N 51°16' E 004°13'0 0.0
2017-Dec-18 11:29N 51°16' E 004°13'0 0.0
2017-Dec-18 10:59N 51°16' E 004°13'0 0.0
2017-Dec-18 10:29N 51°16' E 004°13'0 0.0
2017-Dec-18 09:59N 51°16' E 004°13'0 0.0
2017-Dec-18 09:29N 51°16' E 004°13'  
Track history (hours):
 
Tides and Currents Weather Stations Pressure Air Temp Water Temp Dewpoint Dewpoint Depression Visibility Wind Speed Wind Dir Waves Ship Positions

Boheme

Last reported at 2017-Dec-28 09:02 UTC. Time now 2018-Jan-22 00:09 UTC.
Position N 36°35' E 014°38'.
Warning: this ship's position is 24 days out of date.

Length 227 m; draft 9.9 m.

Type: Cargo ship. MMSI: 563262000.

Date/timePositionNaut miles runAvg speedWind from/ knotsBaromVisibWave heightAir tempDewpointWater temp
2017-Dec-28 09:02N 36°35' E 014°38'117.5
2017-Dec-28 08:59N 36°36' E 014°37'917.7
2017-Dec-28 08:30N 36°39' E 014°28'917.5
2017-Dec-28 08:00N 36°43' E 014°18'917.1
2017-Dec-28 07:30N 36°46' E 014°08'816.9
2017-Dec-28 07:00N 36°49' E 013°58'816.5
2017-Dec-28 06:30N 36°53' E 013°49'25916.6
2017-Dec-27 14:55N 38°36' E 008°48'717.4
2017-Dec-27 14:30N 38°38' E 008°39'1916.9
2017-Dec-27 13:22N 38°46' E 008°17'  
2017-Dec-25 05:59N 41°18' E 002°11'17 8.9
2017-Dec-25 04:05N 41°02' E 002°09'415.9
2017-Dec-25 03:51N 40°58' E 002°07'22411.5
2017-Dec-24 08:19N 37°45' W 000°21'516.1
2017-Dec-24 08:00N 37°41' W 000°24'816.0
2017-Dec-24 07:30N 37°34' W 000°30'815.4
2017-Dec-24 07:00N 37°29' W 000°36'815.3
2017-Dec-24 06:30N 37°24' W 000°43'815.3
2017-Dec-24 06:00N 37°19' W 000°51'815.2
2017-Dec-24 05:30N 37°14' W 000°58'21714.6
2017-Dec-23 14:41N 35°60' W 005°12'318.2
2017-Dec-23 14:30N 35°59' W 005°16'917.8
2017-Dec-23 14:00N 35°58' W 005°26'14115.4
2017-Dec-23 04:52N 36°21' W 008°18'1315.4
2017-Dec-23 04:01N 36°24' W 008°34'115.3
2017-Dec-23 03:58N 36°24' W 008°35'715.3
2017-Dec-23 03:30N 36°26' W 008°44'815.4
2017-Dec-23 03:00N 36°28' W 008°53'1615.2
2017-Dec-23 01:57N 36°32' W 009°12'1815.0
2017-Dec-23 00:46N 36°44' W 009°29'615.1
2017-Dec-23 00:23N 36°48' W 009°34'1116.1
2017-Dec-22 23:44N 36°58' W 009°36'616.0
2017-Dec-22 23:21N 37°04' W 009°38'615.9
2017-Dec-22 22:57N 37°10' W 009°38'715.5
2017-Dec-22 22:30N 37°17' W 009°40'915.6
2017-Dec-22 21:54N 37°27' W 009°42'615.6
2017-Dec-22 21:30N 37°32' W 009°44'815.6
2017-Dec-22 21:00N 37°40' W 009°47'815.5
2017-Dec-22 20:30N 37°47' W 009°50'815.7
2017-Dec-22 20:00N 37°55' W 009°52'815.6
2017-Dec-22 19:30N 38°02' W 009°55'815.7
2017-Dec-22 19:00N 38°10' W 009°57'815.7
2017-Dec-22 18:30N 38°18' W 009°59'815.7
2017-Dec-22 18:00N 38°25' W 010°02'815.6
2017-Dec-22 17:30N 38°33' W 010°04'815.8
2017-Dec-22 17:00N 38°41' W 010°06'815.5
2017-Dec-22 16:30N 38°48' W 010°06'815.3
2017-Dec-22 16:00N 38°56' W 010°07'815.3
2017-Dec-22 15:30N 39°04' W 010°07'815.2
2017-Dec-22 15:00N 39°11' W 010°07'815.9
2017-Dec-22 14:30N 39°19' W 010°07'815.7
2017-Dec-22 14:00N 39°27' W 010°07'815.6
2017-Dec-22 13:30N 39°35' W 010°06'815.6
2017-Dec-22 13:00N 39°43' W 010°06'815.4
2017-Dec-22 12:30N 39°51' W 010°06'815.6
2017-Dec-22 12:00N 39°58' W 010°06'815.6
2017-Dec-22 11:30N 40°06' W 010°06'815.4
2017-Dec-22 11:00N 40°14' W 010°07'815.7
2017-Dec-22 10:29N 40°22' W 010°07'715.8
2017-Dec-22 10:00N 40°30' W 010°07'915.6
2017-Dec-22 09:27N 40°38' W 010°07'21915.5
2017-Dec-21 19:18N 44°15' W 009°24'30015.1
2017-Dec-20 23:24N 48°39' W 005°57'1116.2
2017-Dec-20 22:44N 48°49' W 005°49'416.3
2017-Dec-20 22:29N 48°52' W 005°47'815.3
2017-Dec-20 21:57N 48°57' W 005°37'715.3
2017-Dec-20 21:28N 49°01' W 005°27'715.1
2017-Dec-20 20:59N 49°04' W 005°17'2114.3
2017-Dec-20 19:31N 49°15' W 004°50'613.3
2017-Dec-20 19:03N 49°19' W 004°42'313.3
2017-Dec-20 18:50N 49°20' W 004°38'3513.4
2017-Dec-20 16:12N 49°38' W 003°51'714.7
2017-Dec-20 15:43N 49°42' W 003°42'415.3
2017-Dec-20 15:28N 49°43' W 003°37'915.9
2017-Dec-20 14:55N 49°48' W 003°25'716.5
2017-Dec-20 14:31N 49°51' W 003°16'1016.9
2017-Dec-20 13:57N 49°56' W 003°03'716.9
2017-Dec-20 13:30N 49°59' W 002°53'816.6
2017-Dec-20 13:00N 50°02' W 002°40'916.2
2017-Dec-20 12:26N 50°04' W 002°27'715.5
2017-Dec-20 12:00N 50°06' W 002°16'1214.5
2017-Dec-20 11:10N 50°10' W 001°58'6413.3
2017-Dec-20 06:20N 50°28' W 000°22'515.9
2017-Dec-20 06:00N 50°29' W 000°14'816.4
2017-Dec-20 05:30N 50°32' W 000°02'816.7
2017-Dec-20 05:00N 50°34' E 000°11'816.9
2017-Dec-20 04:30N 50°36' E 000°24'816.6
2017-Dec-20 04:00N 50°39' E 000°36'816.3
2017-Dec-20 03:30N 50°43' E 000°47'815.6
2017-Dec-20 03:00N 50°48' E 000°57'715.0
2017-Dec-20 02:30N 50°52' E 001°07'814.3
2017-Dec-20 01:58N 50°57' E 001°16'613.2
2017-Dec-20 01:30N 51°02' E 001°23'612.9
2017-Dec-20 01:01N 51°05' E 001°31'713.0
2017-Dec-20 00:30N 51°09' E 001°40'713.7
2017-Dec-20 00:01N 51°15' E 001°46'714.9
2017-Dec-19 23:31N 51°21' E 001°53'714.3
2017-Dec-19 23:01N 51°25' E 002°03'815.0
2017-Dec-19 22:31N 51°21' E 002°13'815.7
2017-Dec-19 22:01N 51°22' E 002°26'815.9
2017-Dec-19 21:30N 51°22' E 002°38'713.0
2017-Dec-19 21:01N 51°22' E 002°49'816.8
2017-Dec-19 20:31N 51°24' E 003°02'816.6
2017-Dec-19 20:00N 51°25' E 003°15'917.0
2017-Dec-19 19:30N 51°25' E 003°29'611.5
2017-Dec-19 19:00N 51°26' E 003°38'713.6
2017-Dec-19 18:30N 51°22' E 003°46'714.3
2017-Dec-19 18:00N 51°24' E 003°57'4 7.0
2017-Dec-19 17:30N 51°23' E 004°03'612.5
2017-Dec-19 17:00N 51°24' E 004°13'611.2
2017-Dec-19 16:30N 51°19' E 004°16'2 4.2
2017-Dec-19 16:01N 51°17' E 004°15'0 0.0
2017-Dec-19 15:31N 51°17' E 004°15'1 1.2
2017-Dec-19 15:01N 51°16' E 004°14'1 1.2
2017-Dec-19 14:28N 51°17' E 004°13'0 0.0
2017-Dec-19 13:58N 51°17' E 004°13'0 0.0
2017-Dec-19 13:28N 51°17' E 004°13'0 0.0
2017-Dec-19 12:55N 51°17' E 004°13'0 0.0
2017-Dec-19 12:28N 51°17' E 004°13'0 0.0
2017-Dec-19 11:58N 51°17' E 004°13'0 0.0
2017-Dec-19 11:28N 51°17' E 004°13'0 0.0
2017-Dec-19 10:55N 51°17' E 004°13'0 0.0
2017-Dec-19 10:28N 51°17' E 004°13'0 0.0
2017-Dec-19 09:58N 51°17' E 004°13'0 0.0
2017-Dec-19 09:28N 51°17' E 004°13'0 0.0
2017-Dec-19 08:58N 51°17' E 004°13'0 0.0
2017-Dec-19 08:28N 51°17' E 004°13'0 0.0
2017-Dec-19 07:58N 51°17' E 004°13'0 0.0
2017-Dec-19 07:25N 51°17' E 004°13'0 0.0
2017-Dec-19 06:58N 51°17' E 004°13'0 0.0
2017-Dec-19 06:28N 51°17' E 004°13'0 0.0
2017-Dec-19 05:55N 51°17' E 004°13'0 0.0
2017-Dec-19 05:28N 51°17' E 004°13'0 0.0
2017-Dec-19 04:58N 51°17' E 004°13'0 0.0
2017-Dec-19 04:28N 51°17' E 004°13'0 0.0
2017-Dec-19 03:58N 51°17' E 004°13'0 0.0
2017-Dec-19 03:25N 51°17' E 004°13'0 0.0
2017-Dec-19 02:58N 51°17' E 004°13'0 0.0
2017-Dec-19 02:28N 51°17' E 004°13'0 0.0
2017-Dec-19 01:58N 51°17' E 004°13'0 0.0
2017-Dec-19 01:28N 51°17' E 004°13'0 0.0
2017-Dec-19 00:58N 51°17' E 004°13'0 0.0
2017-Dec-19 00:28N 51°17' E 004°13'0 0.0
2017-Dec-18 23:58N 51°17' E 004°13'0 0.0
2017-Dec-18 23:28N 51°17' E 004°13'0 0.0
2017-Dec-18 22:55N 51°17' E 004°13'0 0.0
2017-Dec-18 22:28N 51°17' E 004°13'0 0.0
2017-Dec-18 21:58N 51°17' E 004°13'1 1.2
2017-Dec-18 21:29N 51°16' E 004°13'0 0.1
2017-Dec-18 20:59N 51°16' E 004°13'0 0.0
2017-Dec-18 20:29N 51°16' E 004°13'0 0.0
2017-Dec-18 19:59N 51°16' E 004°13'0 0.0
2017-Dec-18 19:29N 51°16' E 004°13'0 0.0
2017-Dec-18 18:59N 51°16' E 004°13'0 0.0
2017-Dec-18 18:29N 51°16' E 004°13'0 0.0
2017-Dec-18 17:59N 51°16' E 004°13'0 0.0
2017-Dec-18 17:29N 51°16' E 004°13'0 0.0
2017-Dec-18 16:59N 51°16' E 004°13'0 0.0
2017-Dec-18 16:29N 51°16' E 004°13'0 0.0
2017-Dec-18 15:59N 51°16' E 004°13'0 0.0
2017-Dec-18 15:29N 51°16' E 004°13'0 0.0
2017-Dec-18 14:59N 51°16' E 004°13'0 0.0
2017-Dec-18 14:29N 51°16' E 004°13'0 0.0
2017-Dec-18 13:59N 51°16' E 004°13'0 0.0
2017-Dec-18 13:29N 51°16' E 004°13'0 0.0
2017-Dec-18 12:59N 51°16' E 004°13'0 0.0
2017-Dec-18 12:29N 51°16' E 004°13'0 0.0
2017-Dec-18 11:59N 51°16' E 004°13'0 0.0
2017-Dec-18 11:29N 51°16' E 004°13'0 0.0
2017-Dec-18 10:59N 51°16' E 004°13'0 0.0
2017-Dec-18 10:29N 51°16' E 004°13'0 0.0
2017-Dec-18 09:59N 51°16' E 004°13'0 0.0
2017-Dec-18 09:29N 51°16' E 004°13'  

Dump ship's entire track history